FW1630 Weather Reports


Display with metric or nautical units.
time (UTC)temp
F
wind
direction
speed
MPH
gust
MPH
rain 1hr
in
rain 24hr
in
rain mn
in
humidity
%
barometer
mb
20181115152001 54 155 8.0 13.0 0.00 0.00 0.00 83 1006.7
20181115151501 54 138 8.0 11.0 0.00 0.00 0.00 83 1006.7
20181115151001 54 137 8.0 10.0 0.00 0.00 0.00 83 1006.7
20181115150501 54 145 6.0 9.0 0.00 0.00 0.00 83 1006.7
20181115150001 54 157 4.0 6.0 0.00 0.00 0.00 83 1006.7
20181115145501 54 135 3.0 6.0 0.00 0.00 0.00 83 1006.7
20181115145001 54 162 3.0 5.0 0.00 0.00 0.00 83 1006.7
20181115144501 54 160 3.0 5.0 0.00 0.00 0.00 83 1006.7
20181115144001 54 146 3.0 4.0 0.00 0.00 0.00 82 1006.7
20181115143501 54 153 3.0 4.0 0.00 0.00 0.00 82 1006.7
20181115143001 54 184 3.0 6.0 0.00 0.00 0.00 82 1006.7
20181115142501 54 184 4.0 6.0 0.00 0.00 0.00 81 1006.7
20181115142001 54 151 5.0 9.0 0.00 0.00 0.00 80 1006.7
20181115141501 54 143 8.0 13.0 0.00 0.00 0.00 80 1006.7
20181115141001 54 163 11.0 13.0 0.00 0.00 0.00 78 1006.7
20181115140501 54 161 11.0 15.0 0.00 0.00 0.00 77 1006.7
20181115140001 54 159 11.0 15.0 0.00 0.00 0.00 74 1006.7
20181115135501 54 159 10.0 15.0 0.00 0.00 0.00 75 1006.7
20181115135001 55 179 12.0 15.0 0.00 0.00 0.00 74 1006.7
20181115134501 55 205 12.0 15.0 0.00 0.04 0.00 74 1006.7
20181115134001 55 197 8.0 12.0 0.00 0.04 0.00 74 1006.7
20181115133501 55 182 7.0 12.0 0.00 0.04 0.00 74 1006.7
20181115133001 55 183 8.0 14.0 0.00 0.04 0.00 73 1006.7
20181115132502 55 188 7.0 14.0 0.00 0.04 0.00 74 1006.7
20181115132002 55 188 7.0 13.0 0.00 0.04 0.00 74 1006.7
20181115131501 55 155 8.0 15.0 0.00 0.04 0.00 75 1006.7
20181115131001 56 151 7.0 15.0 0.00 0.04 0.00 73 1006.7
20181115130501 55 179 4.0 8.0 0.00 0.04 0.00 73 1006.7
20181115130002 55 196 4.0 6.0 0.00 0.04 0.00 74 1006.7
20181115125501 56 171 4.0 6.0 0.00 0.08 0.00 75 1006.7
20181115125001 56 145 5.0 9.0 0.00 0.08 0.00 74 1006.7
20181115124501 56 140 6.0 9.0 0.00 0.08 0.00 74 1006.7
20181115124001 56 157 6.0 11.0 0.00 0.08 0.00 75 1006.7
20181115123501 55 154 6.0 11.0 0.00 0.08 0.00 75 1006.7
20181115123001 56 140 6.0 9.0 0.00 0.13 0.00 75 1006.7
20181115122501 56 143 7.0 10.0 0.00 0.13 0.00 74 1006.7
20181115122001 55 137 7.0 10.0 0.00 0.13 0.00 76 1006.7
20181115121501 55 137 6.0 9.0 0.00 0.13 0.00 80 1006.7
20181115121001 55 135 6.0 9.0 0.00 0.16 0.00 81 1006.7
20181115120501 55 132 6.0 8.0 0.00 0.16 0.00 82 1006.7
20181115120002 55 127 6.0 8.0 0.00 0.21 0.00 83 1006.7
20181115115501 55 130 6.0 8.0 0.00 0.21 0.00 84 1006.7
20181115115002 54 152 5.0 6.0 0.00 0.21 0.00 86 1006.7
20181115114502 54 179 5.0 6.0 0.00 0.21 0.00 85 1006.7
20181115114002 54 158 5.0 8.0 0.00 0.21 0.00 86 1006.7
20181115113501 54 145 5.0 9.0 0.00 0.21 0.00 85 1006.7
20181115113002 54 160 5.0 9.0 0.00 0.21 0.00 86 1006.7
20181115112501 54 182 4.0 5.0 0.00 0.21 0.00 85 1006.7
20181115112001 54 135 6.0 14.0 0.00 0.21 0.00 85 1006.7
20181115111503 54 134 8.0 14.0 0.00 0.25 0.00 84 1006.7
20181115111001 54 148 7.0 11.0 0.00 0.25 0.00 84 1006.7
20181115110501 54 172 7.0 13.0 0.00 0.25 0.00 83 1006.7
20181115110001 54 193 7.0 13.0 0.00 0.25 0.00 84 1006.7
20181115105501 54 165 7.0 10.0 0.00 0.25 0.00 84 1006.7
20181115105001 54 140 9.0 19.0 0.00 0.25 0.00 84 1006.7
20181115104502 54 135 12.0 19.0 0.00 0.25 0.00 84 1006.7
20181115104002 54 133 14.0 23.0 0.00 0.25 0.00 84 1006.7
20181115103502 54 132 14.0 23.0 0.00 0.25 0.00 84 1006.7
20181115103002 54 139 14.0 21.0 0.00 0.25 0.00 84 1006.7
20181115102502 53 145 13.0 21.0 0.00 0.29 0.00 85 1006.7
20181115102002 53 138 11.0 17.0 0.00 0.29 0.00 85 1006.7
20181115101502 53 137 12.0 17.0 0.00 0.29 0.00 84 1006.7
20181115101002 53 146 15.0 26.0 0.00 0.29 0.00 84 1006.7
20181115100502 53 156 14.0 26.0 0.00 0.29 0.00 84 1006.7
20181115100002 53 151 11.0 20.0 0.00 0.29 0.00 85 1007.7
20181115095501 53 132 9.0 15.0 0.00 0.33 0.00 87 1007.7
20181115095001 53 131 10.0 15.0 0.00 0.33 0.00 85 1007.7
20181115094501 53 140 10.0 13.0 0.00 0.33 0.00 86 1007.7
20181115094001 52 166 11.0 15.0 0.00 0.33 0.00 87 1007.7
20181115093501 52 192 12.0 17.0 0.00 0.37 0.00 88 1007.7
20181115093002 52 183 11.0 17.0 0.00 0.37 0.00 89 1007.7
20181115092502 52 190 9.0 17.0 0.00 0.37 0.00 88 1007.7
20181115092002 52 203 10.0 15.0 0.00 0.37 0.00 88 1007.7
20181115091002 52 205 14.0 18.0 0.00 0.37 0.00 88 1007.7
20181115090502 52 205 13.0 19.0 0.00 0.42 0.00 90 1007.7
20181115090002 52 211 11.0 19.0 0.00 0.42 0.00 91 1007.7
20181115085502 51 208 10.0 14.0 0.00 0.42 0.00 91 1007.7
20181115085002 51 176 11.0 15.0 0.00 0.42 0.00 92 1007.7
20181115084502 51 146 14.0 17.0 0.00 0.42 0.00 93 1007.7
20181115084002 51 142 14.0 17.0 0.00 0.42 0.00 94 1007.7
20181115083502 51 143 12.0 18.0 0.00 0.42 0.00 94 1007.7
20181115083002 51 139 12.0 18.0 0.00 0.42 0.00 95 1007.7
20181115082502 51 159 10.0 18.0 0.00 0.46 0.00 95 1007.7
20181115082003 51 185 9.0 18.0 0.00 0.46 0.00 94 1007.7
20181115081502 51 172 12.0 18.0 0.00 0.46 0.00 94 1007.7
20181115081002 51 157 13.0 17.0 0.00 0.46 0.00 94 1007.7
20181115080502 51 166 13.0 17.0 0.00 0.46 0.00 94 1007.7
20181115080003 51 182 12.0 18.0 0.00 0.46 0.00 94 1007.7
20181115075502 51 175 11.0 18.0 0.00 0.46 0.00 95 1007.7
20181115075002 51 204 8.0 11.0 0.00 0.46 0.00 95 1007.7
20181115074503 51 202 9.0 13.0 0.00 0.46 0.00 95 1006.7
20181115074002 51 194 10.0 13.0 0.00 0.50 0.00 95 1006.7
20181115073503 51 194 10.0 13.0 0.00 0.50 0.00 95 1006.7
20181115073003 51 184 11.0 13.0 0.00 0.50 0.00 95 1006.7
20181115072502 51 181 12.0 17.0 0.00 0.50 0.00 96 1006.7
20181115072003 51 193 12.0 17.0 0.00 0.50 0.00 95 1006.7
20181115071503 51 197 10.0 15.0 0.00 0.54 0.00 96 1006.7
20181115071003 50 192 9.0 15.0 0.00 0.54 0.00 96 1006.7
20181115070502 50 182 8.0 11.0 0.00 0.54 0.00 96 1006.7
20181115070002 50 185 7.0 11.0 0.00 0.54 0.00 96 1006.7
20181115065502 50 194 7.0 15.0 0.00 0.54 0.00 96 1006.7
20181115065002 50 204 8.0 15.0 0.00 0.54 0.00 96 1006.7
20181115064502 50 213 7.0 12.0 0.00 0.54 0.00 97 1006.7
20181115064003 51 172 8.0 12.0 0.00 0.54 0.00 97 1006.7
20181115063503 51 163 9.0 14.0 0.00 0.54 0.00 97 1006.7
20181115063003 51 205 7.0 14.0 0.00 0.54 0.00 97 1006.7
20181115062503 51 176 7.0 12.0 0.00 0.54 0.00 97 1006.7
20181115062003 51 160 8.0 13.0 0.00 0.54 0.00 97 1006.7
20181115061503 51 188 8.0 14.0 0.00 0.58 0.00 97 1006.7
20181115061003 51 212 8.0 14.0 0.00 0.58 0.00 97 1006.7
20181115060503 51 217 8.0 11.0 0.00 0.58 0.00 97 1006.7
20181115060003 51 204 8.0 11.0 0.00 0.58 0.00 97 1006.7
20181115055503 51 203 9.0 15.0 0.00 0.58 0.00 97 1006.7
20181115055003 51 213 9.0 15.0 0.00 0.58 0.00 97 1006.7
20181115054503 51 192 9.0 12.0 0.00 0.58 0.00 97 1006.7
20181115054002 52 194 11.0 14.0 0.00 0.58 0.00 97 1006.7
20181115053502 52 189 11.0 17.0 0.00 0.58 0.00 97 1006.7
20181115053002 52 156 12.0 17.0 0.00 0.58 0.00 97 1006.7
20181115052502 52 150 10.0 17.0 0.00 0.58 0.00 97 1006.7
20181115052003 52 157 8.0 12.0 0.00 0.58 0.00 97 1006.7
20181115051503 52 154 9.0 16.0 0.00 0.58 0.00 97 1006.7
20181115051003 52 146 11.0 16.0 0.00 0.58 0.00 97 1006.7
20181115050503 52 160 12.0 15.0 0.00 0.58 0.00 97 1006.7
20181115050003 52 170 11.0 15.0 0.00 0.58 0.00 97 1006.7
20181115045503 52 172 9.0 15.0 0.00 0.62 0.00 97 1006.7
20181115045003 52 215 8.0 15.0 0.00 0.62 0.00 97 1006.7
20181115044502 52 215 7.0 11.0 0.00 0.62 0.00 97 1006.7
20181115044002 52 184 7.0 15.0 0.00 0.62 0.00 97 1006.7
20181115043502 52 171 7.0 15.0 0.00 0.62 0.00 97 1006.7
20181115043002 52 173 5.0 6.0 0.00 0.62 0.00 97 1006.7
20181115042502 52 186 6.0 9.0 0.00 0.62 0.00 97 1006.7
20181115042002 53 185 7.0 11.0 0.00 0.62 0.00 97 1006.7
20181115041502 53 192 6.0 11.0 0.00 0.62 0.00 96 1006.7
20181115041003 53 192 6.0 9.0 0.00 0.62 0.00 96 1006.7
20181115040502 53 172 5.0 8.0 0.00 0.62 0.00 96 1006.7
20181115040003 53 165 5.0 11.0 0.00 0.62 0.00 97 1006.7
20181115035503 53 195 6.0 11.0 0.00 0.62 0.00 96 1006.7
20181115035003 53 212 6.0 9.0 0.00 0.62 0.00 96 1006.7
20181115034503 53 179 6.0 9.0 0.00 0.62 0.00 96 1005.7
20181115034003 53 163 6.0 11.0 0.00 0.62 0.00 96 1005.7
20181115033503 53 179 7.0 11.0 0.00 0.62 0.00 96 1005.7
20181115033004 53 172 8.0 10.0 0.00 0.62 0.00 96 1006.7
20181115031950 53 154 8.0 13.0 0.00 0.62 0.00 96 1005.7
20181115031450 54 161 9.0 13.0 0.00 0.62 0.00 96 1005.7
20181115030952 53 172 8.0 13.0 0.00 0.62 0.00 96 1005.7
20181115030449 53 174 7.0 11.0 0.00 0.62 0.00 96 1005.7
20181115025949 53 155 7.0 10.0 0.00 0.62 0.00 96 1005.7
20181115025450 54 167 10.0 20.0 0.00 0.62 0.00 95 1005.7
20181115024949 54 156 12.0 20.0 0.00 0.62 0.00 95 1005.7
20181115024449 53 146 10.0 17.0 0.00 0.62 0.00 96 1005.7
20181115023951 53 150 10.0 13.0 0.00 0.62 0.00 96 1005.7
20181115023449 53 149 11.0 15.0 0.00 0.62 0.00 96 1005.7
20181115022950 53 171 11.0 15.0 0.00 0.62 0.00 96 1005.7
20181115022450 53 190 12.0 20.0 0.00 0.62 0.00 97 1005.7
20181115021949 53 202 13.0 20.0 0.00 0.62 0.00 96 1005.7
20181115021450 53 193 14.0 20.0 0.00 0.62 0.00 96 1005.7
20181115020950 53 159 14.0 19.0 0.00 0.62 0.00 96 1005.7
20181115020449 53 166 14.0 23.0 0.00 0.62 0.00 96 1005.7
20181115015949 54 181 12.0 23.0 0.00 0.62 0.00 96 1005.7
20181115015451 54 152 11.0 18.0 0.00 0.62 0.00 96 1005.7
20181115014949 54 164 12.0 18.0 0.00 0.62 0.00 95 1005.7
20181115014449 54 202 12.0 17.0 0.00 0.62 0.00 95 1005.7
20181115013949 53 196 13.0 20.0 0.00 0.62 0.00 96 1005.7
20181115013449 53 174 14.0 20.0 0.00 0.62 0.00 96 1005.7
20181115012950 53 198 13.0 20.0 0.00 0.62 0.00 96 1005.7
20181115012451 53 215 11.0 19.0 0.00 0.62 0.00 96 1005.7
20181115011950 53 193 11.0 19.0 0.00 0.62 0.00 96 1005.7
20181115011450 53 198 12.0 18.0 0.00 0.62 0.00 97 1005.7
20181115010950 53 216 11.0 19.0 0.00 0.62 0.00 97 1005.7
20181115010450 53 209 12.0 19.0 0.00 0.62 0.00 97 1005.7
20181115005950 53 185 10.0 17.0 0.00 0.62 0.00 100 1005.7
20181115005450 53 195 10.0 17.0 0.00 0.62 0.00 100 1005.7
20181115004950 53 208 10.0 17.0 0.00 0.62 0.00 100 1005.7
20181115004450 53 217 8.0 15.0 0.00 0.62 0.00 100 1005.7
20181115003950 54 213 8.0 11.0 0.00 0.62 0.00 100 1005.7
20181115003450 54 212 8.0 11.0 0.00 0.62 0.00 100 1005.7
20181115002950 54 223 8.0 13.0 0.00 0.62 0.00 100 1005.7
20181115002451 54 221 10.0 15.0 0.00 0.62 0.00 100 1005.7
20181115001950 54 223 10.0 15.0 0.00 0.62 0.00 97 1005.7
20181115001450 54 213 7.0 13.0 0.00 0.62 0.00 97 1005.7
20181115000952 54 213 8.0 15.0 0.00 0.62 0.00 100 1005.7
20181115000449 54 222 8.0 15.0 0.00 0.62 0.00 97 1005.7
20181114235951 54 214 9.0 13.0 0.00 0.62 0.00 97 1005.7
20181114235451 54 206 12.0 17.0 0.00 0.62 0.62 97 1005.7
20181114234950 54 199 11.0 17.0 0.00 0.62 0.62 97 1005.7
20181114234450 54 193 10.0 15.0 0.00 0.62 0.62 100 1005.7
20181114233951 54 209 11.0 15.0 0.00 0.62 0.62 100 1005.7
20181114233450 54 187 11.0 23.0 0.00 0.62 0.62 100 1005.7
20181114232950 54 150 10.0 23.0 0.00 0.62 0.62 100 1005.7
20181114232450 54 159 9.0 19.0 0.00 0.62 0.62 100 1005.7
20181114231950 54 190 8.0 15.0 0.00 0.62 0.62 100 1005.7
20181114231450 54 196 7.0 15.0 0.00 0.62 0.62 100 1005.7
20181114230951 54 192 7.0 11.0 0.00 0.62 0.62 100 1005.7
20181114230450 53 195 7.0 11.0 0.00 0.62 0.62 100 1005.7
20181114225950 54 192 7.0 11.0 0.00 0.62 0.62 100 1005.7
20181114225451 53 208 8.0 11.0 0.00 0.62 0.62 100 1005.7
20181114224950 53 209 9.0 13.0 0.00 0.62 0.62 100 1005.7
20181114224450 53 193 11.0 17.0 0.00 0.62 0.62 100 1004.7
20181114223951 53 198 12.0 17.0 0.00 0.62 0.62 100 1004.7
20181114223450 53 200 12.0 16.0 0.00 0.62 0.62 100 1004.7
20181114222950 53 204 12.0 16.0 0.00 0.62 0.62 100 1004.7
20181114222450 53 220 12.0 19.0 0.00 0.62 0.62 100 1004.7
20181114221950 53 220 11.0 19.0 0.00 0.62 0.62 100 1004.7
20181114221450 53 223 10.0 15.0 0.00 0.62 0.62 100 1005.7
20181114220950 53 222 10.0 17.0 0.00 0.62 0.62 100 1005.7
20181114220450 53 222 10.0 17.0 0.00 0.62 0.62 100 1005.7
20181114215950 53 225 10.0 15.0 0.00 0.62 0.62 100 1005.7
20181114215451 53 225 11.0 15.0 0.00 0.62 0.62 100 1005.7
20181114214950 53 222 12.0 16.0 0.00 0.62 0.62 100 1005.7
20181114214450 53 217 11.0 16.0 0.00 0.62 0.62 100 1004.7
20181114213950 53 216 10.0 12.0 0.00 0.62 0.62 100 1004.7
20181114213450 54 223 10.0 15.0 0.00 0.62 0.62 100 1004.7
20181114212950 54 218 10.0 16.0 0.00 0.62 0.62 100 1005.7
20181114212451 54 204 8.0 16.0 0.00 0.62 0.62 100 1005.7
20181114211950 54 204 7.0 10.0 0.00 0.62 0.62 100 1005.7
20181114211450 53 189 7.0 10.0 0.00 0.62 0.62 100 1004.7
20181114210950 53 191 9.0 15.0 0.00 0.62 0.62 100 1005.7
20181114210450 54 213 10.0 15.0 0.00 0.62 0.62 100 1005.7
20181114205950 54 224 11.0 17.0 0.00 0.62 0.62 100 1005.7
20181114205451 54 222 14.0 32.0 0.00 0.62 0.62 100 1005.7
20181114204950 54 211 14.0 32.0 0.00 0.62 0.62 100 1005.7
20181114204450 54 182 14.0 19.0 0.00 0.62 0.62 100 1005.7
20181114203950 54 181 16.0 21.0 0.00 0.62 0.62 100 1005.7
20181114203451 54 195 15.0 21.0 0.00 0.62 0.62 100 1005.7
20181114202951 54 181 12.0 20.0 0.00 0.62 0.62 100 1005.7
20181114202450 54 207 11.0 17.0 0.00 0.62 0.62 100 1005.7
20181114201951 54 220 10.0 14.0 0.00 0.62 0.62 100 1005.7
20181114201450 54 212 10.0 13.0 0.00 0.62 0.62 100 1004.7
20181114200950 54 220 10.0 15.0 0.00 0.62 0.62 100 1004.7
20181114200450 54 225 11.0 21.0 0.00 0.62 0.62 100 1004.7
20181114195950 54 211 10.0 21.0 0.00 0.62 0.62 100 1004.7
20181114195451 54 203 9.0 19.0 0.00 0.62 0.62 100 1004.7
20181114194950 54 218 9.0 13.0 0.00 0.62 0.62 100 1004.7
20181114194450 54 206 11.0 21.0 0.00 0.62 0.62 100 1004.7
20181114193950 54 178 12.0 21.0 0.00 0.62 0.62 100 1004.7
20181114193450 54 178 12.0 21.0 0.00 0.62 0.62 100 1004.7
20181114192950 54 181 11.0 17.0 0.00 0.62 0.62 100 1004.7
20181114192450 54 163 13.0 17.0 0.00 0.62 0.62 100 1004.7
20181114191950 54 148 12.0 17.0 0.00 0.62 0.62 100 1004.7
20181114191450 54 136 11.0 19.0 0.00 0.62 0.62 100 1004.7
20181114190950 54 131 11.0 19.0 0.00 0.62 0.62 100 1004.7
20181114190450 54 131 10.0 15.0 0.00 0.62 0.62 100 1004.7
20181114185950 54 135 10.0 15.0 0.00 0.62 0.62 100 1004.7
20181114185450 54 142 10.0 15.0 0.00 0.62 0.62 100 1004.7
20181114184951 54 153 11.0 15.0 0.00 0.62 0.62 100 1004.7
20181114184451 54 144 11.0 15.0 0.00 0.62 0.62 100 1004.7
20181114183951 54 161 9.0 13.0 0.00 0.62 0.62 100 1004.7
20181114183451 54 182 10.0 13.0 0.00 0.62 0.62 100 1004.7
20181114182951 54 177 10.0 13.0 0.00 0.62 0.62 100 1004.7
20181114182451 54 179 8.0 12.0 0.00 0.62 0.62 100 1004.7
20181114181951 54 157 8.0 14.0 0.00 0.62 0.62 100 1004.7
20181114181451 54 176 8.0 14.0 0.00 0.62 0.62 100 1003.7
20181114180951 54 200 7.0 13.0 0.00 0.62 0.62 100 1003.7
20181114180451 54 173 7.0 11.0 0.00 0.62 0.62 100 1003.7
20181114175951 54 167 8.0 11.0 0.00 0.62 0.62 100 1003.7
20181114175452 54 169 8.0 13.0 0.00 0.62 0.62 100 1003.7
20181114174951 54 192 10.0 15.0 0.00 0.62 0.62 100 1003.7
20181114174451 54 213 10.0 16.0 0.00 0.62 0.62 100 1004.7
20181114173951 54 213 9.0 16.0 0.00 0.62 0.62 100 1004.7
20181114173450 54 203 7.0 10.0 0.00 0.62 0.62 100 1004.7
20181114172951 54 208 6.0 8.0 0.00 0.62 0.62 100 1003.7
20181114172450 54 222 6.0 8.0 0.00 0.62 0.62 100 1003.7
20181114171951 54 225 5.0 8.0 0.00 0.62 0.62 100 1003.7
20181114171451 54 209 8.0 13.0 0.00 0.62 0.62 100 1003.7
20181114170951 55 188 9.0 13.0 0.00 0.62 0.62 100 1003.7
20181114170451 55 191 10.0 16.0 0.00 0.62 0.62 100 1003.7
20181114165950 55 191 11.0 16.0 0.00 0.62 0.62 100 1003.7
20181114165450 55 202 13.0 18.0 0.00 0.62 0.62 100 1003.7
20181114164951 55 183 13.0 18.0 0.00 0.62 0.62 100 1003.7
20181114164451 55 156 12.0 17.0 0.00 0.62 0.62 100 1003.7
20181114163951 55 154 12.0 17.0 0.00 0.62 0.62 100 1003.7
20181114163451 55 143 12.0 16.0 0.00 0.62 0.62 100 1003.7
20181114162951 55 147 12.0 16.0 0.00 0.62 0.62 100 1003.7
20181114162451 55 167 11.0 16.0 0.00 0.62 0.62 100 1003.7
20181114161951 55 161 10.0 13.0 0.00 0.62 0.62 100 1003.7
20181114161451 55 181 10.0 15.0 0.00 0.62 0.62 100 1003.7
20181114160951 55 197 14.0 21.0 0.00 0.62 0.62 100 1003.7
20181114160451 55 167 14.0 21.0 0.00 0.62 0.62 100 1003.7
20181114155951 55 152 11.0 15.0 0.00 0.62 0.62 100 1003.7
20181114155451 55 172 10.0 15.0 0.00 0.62 0.62 100 1003.7
20181114154951 55 167 11.0 15.0 0.00 0.62 0.62 100 1003.7
20181114154451 55 179 10.0 15.0 0.00 0.62 0.62 100 1003.7
20181114153951 55 214 10.0 18.0 0.00 0.62 0.62 100 1003.7
20181114153451 55 202 11.0 18.0 0.00 0.62 0.62 100 1003.7
20181114152951 55 210 10.0 18.0 0.00 0.62 0.62 100 1003.7
20181114152451 55 203 9.0 18.0 0.00 0.62 0.62 100 1003.7